Atsuta — 3FQW8 — position and weather

sailwx.info

Track history (hours):
 
Tides and Currents Weather Stations Pressure Air Temp Water Temp Dewpoint Dewpoint Depression Visibility Wind Speed Wind Dir Waves Ship Positions

Atsuta

Last reported at 2018-Feb-22 06:57 UTC. Time now 2018-Feb-24 07:52 UTC.
Position N 34°03' E 130°15'.

Length 155 m; beam 24.5 m.

MMSI: 351212000.

Date/timePositionNaut miles runAvg speedWind from/ knotsBaromVisibWave heightAir tempDewpointWater temp
2018-Feb-22 06:57N 34°03' E 130°15'410.0
2018-Feb-22 06:30N 34°03' E 130°20'6 9.9
2018-Feb-22 05:55N 34°02' E 130°27'4 9.9
2018-Feb-22 05:30N 34°02' E 130°32'5 9.9
2018-Feb-22 05:01N 34°03' E 130°38'510.4
2018-Feb-22 04:30N 34°03' E 130°44'5 9.8
2018-Feb-22 04:01N 34°02' E 130°50'510.0
2018-Feb-22 03:30N 33°57' E 130°52'4 7.5
2018-Feb-22 03:00N 33°57' E 130°56'510.2
2018-Feb-22 02:31N 33°58' E 131°02'510.8
2018-Feb-22 02:01N 33°55' E 131°08'510.9
2018-Feb-22 01:31N 33°52' E 131°13'611.0
2018-Feb-22 01:00N 33°51' E 131°20'511.0
2018-Feb-22 00:31N 33°49' E 131°26'510.4
2018-Feb-22 00:00N 33°46' E 131°31'510.9
2018-Feb-21 23:30N 33°43' E 131°36'611.2
2018-Feb-21 23:00N 33°41' E 131°43'510.7
2018-Feb-21 22:30N 33°38' E 131°48'510.3
2018-Feb-21 22:00N 33°33' E 131°51'610.0
2018-Feb-21 21:27N 33°28' E 131°54'4 9.7
2018-Feb-21 21:00N 33°24' E 131°56'5 9.6
2018-Feb-21 20:29N 33°20' E 131°59'4 7.7
2018-Feb-21 20:00N 33°17' E 132°01'5 8.5
2018-Feb-21 19:22N 33°12' E 132°05'253 7.9
2018-Feb-20 11:28N 34°40' E 136°50'510.9
2018-Feb-20 11:01N 34°45' E 136°47'510.4
2018-Feb-20 10:30N 34°50' E 136°46'510.9
2018-Feb-20 10:01N 34°55' E 136°46'510.3
2018-Feb-20 09:30N 35°00' E 136°47'2 4.0
2018-Feb-20 08:58N 35°02' E 136°48'0 0.0
2018-Feb-20 08:28N 35°02' E 136°48'0 0.0
2018-Feb-20 07:58N 35°02' E 136°48'0 0.0
2018-Feb-20 07:28N 35°02' E 136°48'0 0.0
2018-Feb-20 06:58N 35°02' E 136°48'0 0.0
2018-Feb-20 06:28N 35°02' E 136°48'0 0.0
2018-Feb-20 05:58N 35°02' E 136°48'0 0.0
2018-Feb-20 05:28N 35°02' E 136°48'0 0.0
2018-Feb-20 04:58N 35°02' E 136°48'0 0.0
2018-Feb-20 04:28N 35°02' E 136°48'0 0.0
2018-Feb-20 03:58N 35°02' E 136°48'0 0.0
2018-Feb-20 03:28N 35°02' E 136°48'0 0.0
2018-Feb-20 02:58N 35°02' E 136°48'0 0.0
2018-Feb-20 02:28N 35°02' E 136°48'0 0.0
2018-Feb-20 01:58N 35°02' E 136°48'0 0.0
2018-Feb-20 01:28N 35°02' E 136°48'0 0.0
2018-Feb-20 00:58N 35°02' E 136°48'0 0.0
2018-Feb-20 00:28N 35°02' E 136°48'0 0.0
2018-Feb-19 23:58N 35°02' E 136°48'0 0.0
2018-Feb-19 23:28N 35°02' E 136°48'0 0.0
2018-Feb-19 22:58N 35°02' E 136°48'0 0.0
2018-Feb-19 22:28N 35°02' E 136°48'0 0.0
2018-Feb-19 22:00N 35°02' E 136°48'1 1.5
2018-Feb-19 21:31N 35°01' E 136°48'4 8.1
2018-Feb-19 21:00N 34°58' E 136°45'0 0.2
2018-Feb-19 20:30N 34°58' E 136°45'0 0.0
2018-Feb-19 20:00N 34°58' E 136°45'0 0.0
2018-Feb-19 19:30N 34°58' E 136°45'0 0.0
2018-Feb-19 19:00N 34°58' E 136°45'0 0.0
2018-Feb-19 18:30N 34°58' E 136°45'0 0.0
2018-Feb-19 18:00N 34°58' E 136°45'0 0.0
2018-Feb-19 17:30N 34°58' E 136°45'0 0.0
2018-Feb-19 17:00N 34°58' E 136°45'0 0.0
2018-Feb-19 16:30N 34°58' E 136°45'0 0.0
2018-Feb-19 16:00N 34°58' E 136°45'0 0.0
2018-Feb-19 15:30N 34°58' E 136°45'0 0.0
2018-Feb-19 15:00N 34°58' E 136°45'0 0.0
2018-Feb-19 14:30N 34°58' E 136°45'0 0.0
2018-Feb-19 14:00N 34°58' E 136°45'0 0.0
2018-Feb-19 13:30N 34°58' E 136°45'0 0.0
2018-Feb-19 13:00N 34°58' E 136°45'0 0.0
2018-Feb-19 12:30N 34°58' E 136°45'0 0.1
2018-Feb-19 12:00N 34°58' E 136°46'0 0.0
2018-Feb-19 11:29N 34°58' E 136°46'0 0.0
2018-Feb-19 10:59N 34°58' E 136°46'0 0.0
2018-Feb-19 10:29N 34°58' E 136°46'0 0.0
2018-Feb-19 09:59N 34°58' E 136°46'0 0.0
2018-Feb-19 09:29N 34°58' E 136°46'0 0.0
2018-Feb-19 08:59N 34°58' E 136°46'0 0.0
2018-Feb-19 08:20N 34°58' E 136°46'0 0.1
2018-Feb-19 07:59N 34°58' E 136°46'0 0.1
2018-Feb-19 07:29N 34°58' E 136°45'0 0.0
2018-Feb-19 06:59N 34°58' E 136°45'0 0.0
2018-Feb-19 06:29N 34°58' E 136°45'0 0.0
2018-Feb-19 05:59N 34°58' E 136°45'0 0.1
2018-Feb-19 05:29N 34°58' E 136°45'0 0.0
2018-Feb-19 04:59N 34°58' E 136°45'0 0.0
2018-Feb-19 04:29N 34°58' E 136°45'0 0.0
2018-Feb-19 03:59N 34°58' E 136°45'0 0.0
2018-Feb-19 03:29N 34°58' E 136°45'0 0.0
2018-Feb-19 02:59N 34°58' E 136°45'0 0.0
2018-Feb-19 02:29N 34°58' E 136°45'0 0.1
2018-Feb-19 01:59N 34°58' E 136°45'0 0.0
2018-Feb-19 01:29N 34°58' E 136°45'0 0.0
2018-Feb-19 00:59N 34°58' E 136°45'0 0.0
2018-Feb-19 00:29N 34°58' E 136°45'0 0.0
2018-Feb-18 23:59N 34°58' E 136°45'0 0.0
2018-Feb-18 23:29N 34°58' E 136°45'0 0.1
2018-Feb-18 22:59N 34°58' E 136°46'0 0.1
2018-Feb-18 22:29N 34°58' E 136°45'0 0.0
2018-Feb-18 21:59N 34°58' E 136°45'0 0.0
2018-Feb-18 21:29N 34°58' E 136°45'0 0.1
2018-Feb-18 20:59N 34°58' E 136°46'0 0.0
2018-Feb-18 20:29N 34°58' E 136°46'0 0.0
2018-Feb-18 19:56N 34°58' E 136°46'0 0.0
2018-Feb-18 19:29N 34°58' E 136°46'0 0.1
2018-Feb-18 18:59N 34°58' E 136°45'0 0.0
2018-Feb-18 18:29N 34°58' E 136°45'0 0.0
2018-Feb-18 17:59N 34°58' E 136°45'0 0.0
2018-Feb-18 17:29N 34°58' E 136°45'0 0.0
2018-Feb-18 16:59N 34°58' E 136°45'0 0.0
2018-Feb-18 16:29N 34°58' E 136°45'0 0.1
2018-Feb-18 15:59N 34°58' E 136°46'0 0.0
2018-Feb-18 15:29N 34°58' E 136°46'0 0.0
2018-Feb-18 14:59N 34°58' E 136°46'0 0.1
2018-Feb-18 14:29N 34°58' E 136°45'0 0.1
2018-Feb-18 13:59N 34°58' E 136°46'0 0.0
2018-Feb-18 13:29N 34°58' E 136°46'0 0.0
2018-Feb-18 12:59N 34°58' E 136°46'0 0.0
2018-Feb-18 12:29N 34°58' E 136°46'0 0.0
2018-Feb-18 11:59N 34°58' E 136°46'0 0.0
2018-Feb-18 11:29N 34°58' E 136°46'0 0.0
2018-Feb-18 10:59N 34°58' E 136°46'0 0.0
2018-Feb-18 10:29N 34°58' E 136°46'0 0.0
2018-Feb-18 09:59N 34°58' E 136°46'0 0.0
2018-Feb-18 09:29N 34°58' E 136°46'0 0.0
2018-Feb-18 08:59N 34°58' E 136°46'0 0.0
2018-Feb-18 08:29N 34°58' E 136°46'0 0.0
2018-Feb-18 07:59N 34°58' E 136°46'0 0.0
2018-Feb-18 07:29N 34°58' E 136°46'0 0.0
2018-Feb-18 06:59N 34°58' E 136°46'0 0.0
2018-Feb-18 06:29N 34°58' E 136°46'0 0.0
2018-Feb-18 05:59N 34°58' E 136°46'0 0.0
2018-Feb-18 05:29N 34°58' E 136°46'0 0.1
2018-Feb-18 04:59N 34°58' E 136°45'0 0.1
2018-Feb-18 04:29N 34°58' E 136°46'0 0.1
2018-Feb-18 03:59N 34°58' E 136°45'0 0.1
2018-Feb-18 03:29N 34°58' E 136°46'0 0.0
2018-Feb-18 02:59N 34°58' E 136°46'0 0.0
2018-Feb-18 02:29N 34°58' E 136°46'0 0.0
2018-Feb-18 01:59N 34°58' E 136°46'0 0.1
2018-Feb-18 01:29N 34°58' E 136°45'0 0.0
2018-Feb-18 00:59N 34°58' E 136°45'0 0.0
2018-Feb-18 00:29N 34°58' E 136°45'0 0.0
2018-Feb-17 23:58N 34°58' E 136°45'0 0.0
2018-Feb-17 23:28N 34°58' E 136°45'0 0.0
2018-Feb-17 22:58N 34°58' E 136°45'0 0.0
2018-Feb-17 22:28N 34°58' E 136°45'0 0.0
2018-Feb-17 21:58N 34°58' E 136°45'0 0.0
2018-Feb-17 21:28N 34°58' E 136°45'0 0.0
2018-Feb-17 20:58N 34°58' E 136°45'0 0.0
2018-Feb-17 20:28N 34°58' E 136°45'0 0.0
2018-Feb-17 19:58N 34°58' E 136°45'0 0.0
2018-Feb-17 19:28N 34°58' E 136°45'0 0.1
2018-Feb-17 18:58N 34°58' E 136°46'0 0.0
2018-Feb-17 18:28N 34°58' E 136°46'0 0.0
2018-Feb-17 17:58N 34°58' E 136°46'0 0.1
2018-Feb-17 17:28N 34°58' E 136°45'0 0.0
2018-Feb-17 16:58N 34°58' E 136°45'0 0.0
2018-Feb-17 16:28N 34°58' E 136°45'0 0.0
2018-Feb-17 15:58N 34°58' E 136°45'0 0.0
2018-Feb-17 15:28N 34°58' E 136°45'0 0.0
2018-Feb-17 14:58N 34°58' E 136°45'0 0.1
2018-Feb-17 14:28N 34°58' E 136°46'0 0.0
2018-Feb-17 13:58N 34°58' E 136°46'0 0.1
2018-Feb-17 13:28N 34°58' E 136°45'0 0.1
2018-Feb-17 12:58N 34°58' E 136°46'0 0.0
2018-Feb-17 12:28N 34°58' E 136°46'0 0.0
2018-Feb-17 11:58N 34°58' E 136°46'0 0.0
2018-Feb-17 11:28N 34°58' E 136°46'0 0.0
2018-Feb-17 10:58N 34°58' E 136°46'0 0.0
2018-Feb-17 10:28N 34°58' E 136°46'0 0.0
2018-Feb-17 09:58N 34°58' E 136°46'0 0.0
2018-Feb-17 09:25N 34°58' E 136°46'0 0.0
2018-Feb-17 08:58N 34°58' E 136°46'0 0.0
2018-Feb-17 08:28N 34°58' E 136°46'0 0.0
2018-Feb-17 07:58N 34°58' E 136°46'0 0.0
2018-Feb-17 07:28N 34°58' E 136°46'0 0.0
2018-Feb-17 06:58N 34°58' E 136°46'0 0.0
2018-Feb-17 06:28N 34°58' E 136°46'0 0.0
2018-Feb-17 05:58N 34°58' E 136°46'2 4.4
2018-Feb-17 05:30N 34°56' E 136°46'5 9.1
2018-Feb-17 05:00N 34°52' E 136°46'5 9.4
2018-Feb-17 04:30N 34°47' E 136°47'5 9.2
2018-Feb-17 04:00N 34°43' E 136°49'4 8.4
2018-Feb-17 03:30N 34°39' E 136°52'13 8.0
2018-Feb-17 01:57N 34°33' E 137°05'4 8.8
2018-Feb-17 01:27N 34°32' E 137°10'53 9.4
2018-Feb-16 19:51N 34°32' E 138°15'4 7.8
2018-Feb-16 19:22N 34°32' E 138°19'3 8.2
2018-Feb-16 18:58N 34°33' E 138°23'6 9.4
2018-Feb-16 18:23N 34°33' E 138°30'4 9.4
2018-Feb-16 18:00N 34°33' E 138°34'5 9.0
2018-Feb-16 17:26N 34°34' E 138°40'7 8.8
2018-Feb-16 16:42N 34°34' E 138°48'2 8.4
2018-Feb-16 16:30N 34°34' E 138°50'4 8.4
2018-Feb-16 16:00N 34°35' E 138°55'6 9.0
2018-Feb-16 15:21N 34°38' E 139°02'3 8.5
2018-Feb-16 15:00N 34°40' E 139°04'6 9.2
2018-Feb-16 14:19N 34°44' E 139°10'3 8.5
2018-Feb-16 14:00N 34°46' E 139°12'4 8.6
2018-Feb-16 13:30N 34°49' E 139°16'6 8.5
2018-Feb-16 12:51N 34°52' E 139°21'9 8.5
2018-Feb-16 11:46N 34°59' E 139°30'5 8.7
2018-Feb-16 11:13N 35°02' E 139°34'2 9.9
2018-Feb-16 11:00N 35°03' E 139°36'510.7
2018-Feb-16 10:30N 35°07' E 139°41'610.9
2018-Feb-16 10:00N 35°11' E 139°45'510.3
2018-Feb-16 09:30N 35°16' E 139°45'510.7
2018-Feb-16 09:00N 35°21' E 139°42'510.3
2018-Feb-16 08:30N 35°26' E 139°42'4 6.9
2018-Feb-16 07:59N 35°28' E 139°39'0 0.1
2018-Feb-16 07:29N 35°28' E 139°39'0 0.0
2018-Feb-16 06:59N 35°28' E 139°39'0 0.0
2018-Feb-16 06:29N 35°28' E 139°39'0 0.0
2018-Feb-16 05:59N 35°28' E 139°39'0 0.0
2018-Feb-16 05:29N 35°28' E 139°39'0 0.0
2018-Feb-16 04:53N 35°28' E 139°39'0 0.0
2018-Feb-16 04:29N 35°28' E 139°39'0 0.0
2018-Feb-16 03:59N 35°28' E 139°39'0 0.0
2018-Feb-16 03:29N 35°28' E 139°39'0 0.0
2018-Feb-16 02:59N 35°28' E 139°39'0 0.0
2018-Feb-16 02:29N 35°28' E 139°39'0 0.0
2018-Feb-16 01:59N 35°28' E 139°39'0 0.0
2018-Feb-16 01:26N 35°28' E 139°39'0 0.0
2018-Feb-16 00:59N 35°28' E 139°39'0 0.0
2018-Feb-16 00:29N 35°28' E 139°39'0 0.0
2018-Feb-15 23:59N 35°28' E 139°39'0 0.0
2018-Feb-15 23:29N 35°28' E 139°39'0 0.0
2018-Feb-15 22:59N 35°28' E 139°39'0 0.0
2018-Feb-15 22:29N 35°28' E 139°39'0 0.5
2018-Feb-15 22:00N 35°28' E 139°39'3 6.7
2018-Feb-15 21:30N 35°27' E 139°43'0 0.2
2018-Feb-15 20:59N 35°27' E 139°43'0 0.0
2018-Feb-15 20:29N 35°27' E 139°43'0 0.0
2018-Feb-15 19:59N 35°27' E 139°43'0 0.0
2018-Feb-15 19:29N 35°27' E 139°43'0 0.0
2018-Feb-15 18:59N 35°27' E 139°43'0 0.0
2018-Feb-15 18:29N 35°27' E 139°43'0 0.0
2018-Feb-15 17:59N 35°27' E 139°43'0 0.0
2018-Feb-15 17:29N 35°27' E 139°43'0 0.0
2018-Feb-15 16:59N 35°27' E 139°43'0 0.1
2018-Feb-15 16:29N 35°27' E 139°43'0 0.1
2018-Feb-15 15:53N 35°27' E 139°43'0 0.0
2018-Feb-15 15:29N 35°27' E 139°43'0 0.0
2018-Feb-15 14:59N 35°27' E 139°43'0 0.1
2018-Feb-15 14:29N 35°27' E 139°43'0 0.0
2018-Feb-15 13:59N 35°27' E 139°43'0 0.0
2018-Feb-15 13:29N 35°27' E 139°43'0 0.0
2018-Feb-15 12:56N 35°27' E 139°43'0 0.1
2018-Feb-15 12:29N 35°27' E 139°43'0 0.1
2018-Feb-15 11:59N 35°27' E 139°43'0 0.0
2018-Feb-15 11:29N 35°27' E 139°43'0 0.0
2018-Feb-15 10:59N 35°27' E 139°43'0 0.1
2018-Feb-15 10:29N 35°27' E 139°43'0 0.0
2018-Feb-15 09:59N 35°27' E 139°43'0 0.1
2018-Feb-15 09:30N 35°27' E 139°43'1 2.2
2018-Feb-15 09:00N 35°27' E 139°44'510.8
2018-Feb-15 08:30N 35°29' E 139°50'510.9
2018-Feb-15 08:00N 35°33' E 139°55'5 9.7
2018-Feb-15 07:30N 35°36' E 139°59'1 0.1
2018-Feb-14 20:30N 35°38' E 139°59'2 0.6
2018-Feb-14 17:49N 35°36' E 139°58'0 0.0
2018-Feb-14 16:22N 35°36' E 139°58'0 0.0
2018-Feb-14 15:58N 35°36' E 139°58'0 0.0
2018-Feb-14 14:43N 35°36' E 139°58'0 0.0
2018-Feb-14 14:13N 35°36' E 139°58'0 0.0
2018-Feb-14 13:49N 35°36' E 139°58'0 0.0
2018-Feb-14 13:13N 35°36' E 139°58'0 0.0
2018-Feb-14 12:55N 35°36' E 139°58'0 0.0
2018-Feb-14 12:25N 35°36' E 139°58'0 0.0
2018-Feb-14 11:55N 35°36' E 139°58'0 0.0
2018-Feb-14 11:19N 35°36' E 139°58'0 0.0
2018-Feb-14 10:55N 35°36' E 139°58'0 0.0
2018-Feb-14 10:07N 35°36' E 139°58'0 0.0
2018-Feb-14 09:43N 35°36' E 139°58'0 0.0
2018-Feb-14 08:31N 35°36' E 139°58'0 0.0
2018-Feb-14 06:34N 35°36' E 139°58'0 0.0
2018-Feb-14 05:01N 35°36' E 139°58'0 0.0
2018-Feb-14 04:43N 35°36' E 139°58'0 0.0
2018-Feb-14 03:13N 35°36' E 139°58'0 0.0
2018-Feb-14 02:55N 35°36' E 139°58'0 0.1
2018-Feb-14 01:37N 35°36' E 139°58'0 0.0
2018-Feb-14 01:25N 35°36' E 139°58'0 0.0
2018-Feb-14 00:55N 35°36' E 139°58'0 0.0
2018-Feb-14 00:25N 35°36' E 139°58'0 0.0
2018-Feb-13 23:49N 35°36' E 139°58'0 0.1
2018-Feb-13 22:55N 35°36' E 139°58'0 0.0
2018-Feb-13 22:19N 35°36' E 139°58'0 0.1
2018-Feb-13 21:49N 35°36' E 139°58'1 2.0
2018-Feb-13 21:30N 35°35' E 139°58'5 9.8
2018-Feb-13 20:59N 35°31' E 139°54'510.1
2018-Feb-13 20:30N 35°28' E 139°50'510.1
2018-Feb-13 20:00N 35°24' E 139°46'510.2
2018-Feb-13 19:31N 35°19' E 139°44'510.4
2018-Feb-13 19:00N 35°14' E 139°47'510.5
2018-Feb-13 18:30N 35°09' E 139°45'5 9.8
2018-Feb-13 18:00N 35°05' E 139°43'510.2
2018-Feb-13 17:31N 35°01' E 139°38'1911.8
2018-Feb-13 15:55N 34°50' E 139°20'512.0
2018-Feb-13 15:30N 34°46' E 139°16'812.6
2018-Feb-13 14:53N 34°41' E 139°09'411.8
2018-Feb-13 14:30N 34°39' E 139°04'610.8
2018-Feb-13 13:55N 34°36' E 138°57'511.6
2018-Feb-13 13:27N 34°34' E 138°51'811.4
2018-Feb-13 12:46N 34°33' E 138°42'411.2
2018-Feb-13 12:27N 34°33' E 138°37'510.7
2018-Feb-13 11:59N 34°33' E 138°31'5 9.9
2018-Feb-13 11:29N 34°32' E 138°25'510.0
2018-Feb-13 11:00N 34°32' E 138°20'168 9.3
2018-Feb-12 16:56N 33°49' E 135°03'510.9
2018-Feb-12 16:30N 33°53' E 134°60'510.5
2018-Feb-12 16:00N 33°57' E 134°56'810.6
2018-Feb-12 15:18N 34°03' E 134°50'310.8
2018-Feb-12 15:00N 34°05' E 134°47'811.4
2018-Feb-12 14:18N 34°11' E 134°41'412.8
2018-Feb-12 14:00N 34°15' E 134°39'611.2
2018-Feb-12 13:30N 34°17' E 134°33'610.8
2018-Feb-12 12:59N 34°19' E 134°27'610.7
2018-Feb-12 12:27N 34°22' E 134°20'710.9
2018-Feb-12 11:48N 34°24' E 134°12'  
Track history (hours):
 
Tides and Currents Weather Stations Pressure Air Temp Water Temp Dewpoint Dewpoint Depression Visibility Wind Speed Wind Dir Waves Ship Positions

Atsuta

Last reported at 2018-Feb-22 06:57 UTC. Time now 2018-Feb-24 07:52 UTC.
Position N 34°03' E 130°15'.

Length 155 m; beam 24.5 m.

MMSI: 351212000.

Date/timePositionNaut miles runAvg speedWind from/ knotsBaromVisibWave heightAir tempDewpointWater temp
2018-Feb-22 06:57N 34°03' E 130°15'410.0
2018-Feb-22 06:30N 34°03' E 130°20'6 9.9
2018-Feb-22 05:55N 34°02' E 130°27'4 9.9
2018-Feb-22 05:30N 34°02' E 130°32'5 9.9
2018-Feb-22 05:01N 34°03' E 130°38'510.4
2018-Feb-22 04:30N 34°03' E 130°44'5 9.8
2018-Feb-22 04:01N 34°02' E 130°50'510.0
2018-Feb-22 03:30N 33°57' E 130°52'4 7.5
2018-Feb-22 03:00N 33°57' E 130°56'510.2
2018-Feb-22 02:31N 33°58' E 131°02'510.8
2018-Feb-22 02:01N 33°55' E 131°08'510.9
2018-Feb-22 01:31N 33°52' E 131°13'611.0
2018-Feb-22 01:00N 33°51' E 131°20'511.0
2018-Feb-22 00:31N 33°49' E 131°26'510.4
2018-Feb-22 00:00N 33°46' E 131°31'510.9
2018-Feb-21 23:30N 33°43' E 131°36'611.2
2018-Feb-21 23:00N 33°41' E 131°43'510.7
2018-Feb-21 22:30N 33°38' E 131°48'510.3
2018-Feb-21 22:00N 33°33' E 131°51'610.0
2018-Feb-21 21:27N 33°28' E 131°54'4 9.7
2018-Feb-21 21:00N 33°24' E 131°56'5 9.6
2018-Feb-21 20:29N 33°20' E 131°59'4 7.7
2018-Feb-21 20:00N 33°17' E 132°01'5 8.5
2018-Feb-21 19:22N 33°12' E 132°05'253 7.9
2018-Feb-20 11:28N 34°40' E 136°50'510.9
2018-Feb-20 11:01N 34°45' E 136°47'510.4
2018-Feb-20 10:30N 34°50' E 136°46'510.9
2018-Feb-20 10:01N 34°55' E 136°46'510.3
2018-Feb-20 09:30N 35°00' E 136°47'2 4.0
2018-Feb-20 08:58N 35°02' E 136°48'0 0.0
2018-Feb-20 08:28N 35°02' E 136°48'0 0.0
2018-Feb-20 07:58N 35°02' E 136°48'0 0.0
2018-Feb-20 07:28N 35°02' E 136°48'0 0.0
2018-Feb-20 06:58N 35°02' E 136°48'0 0.0
2018-Feb-20 06:28N 35°02' E 136°48'0 0.0
2018-Feb-20 05:58N 35°02' E 136°48'0 0.0
2018-Feb-20 05:28N 35°02' E 136°48'0 0.0
2018-Feb-20 04:58N 35°02' E 136°48'0 0.0
2018-Feb-20 04:28N 35°02' E 136°48'0 0.0
2018-Feb-20 03:58N 35°02' E 136°48'0 0.0
2018-Feb-20 03:28N 35°02' E 136°48'0 0.0
2018-Feb-20 02:58N 35°02' E 136°48'0 0.0
2018-Feb-20 02:28N 35°02' E 136°48'0 0.0
2018-Feb-20 01:58N 35°02' E 136°48'0 0.0
2018-Feb-20 01:28N 35°02' E 136°48'0 0.0
2018-Feb-20 00:58N 35°02' E 136°48'0 0.0
2018-Feb-20 00:28N 35°02' E 136°48'0 0.0
2018-Feb-19 23:58N 35°02' E 136°48'0 0.0
2018-Feb-19 23:28N 35°02' E 136°48'0 0.0
2018-Feb-19 22:58N 35°02' E 136°48'0 0.0
2018-Feb-19 22:28N 35°02' E 136°48'0 0.0
2018-Feb-19 22:00N 35°02' E 136°48'1 1.5
2018-Feb-19 21:31N 35°01' E 136°48'4 8.1
2018-Feb-19 21:00N 34°58' E 136°45'0 0.2
2018-Feb-19 20:30N 34°58' E 136°45'0 0.0
2018-Feb-19 20:00N 34°58' E 136°45'0 0.0
2018-Feb-19 19:30N 34°58' E 136°45'0 0.0
2018-Feb-19 19:00N 34°58' E 136°45'0 0.0
2018-Feb-19 18:30N 34°58' E 136°45'0 0.0
2018-Feb-19 18:00N 34°58' E 136°45'0 0.0
2018-Feb-19 17:30N 34°58' E 136°45'0 0.0
2018-Feb-19 17:00N 34°58' E 136°45'0 0.0
2018-Feb-19 16:30N 34°58' E 136°45'0 0.0
2018-Feb-19 16:00N 34°58' E 136°45'0 0.0
2018-Feb-19 15:30N 34°58' E 136°45'0 0.0
2018-Feb-19 15:00N 34°58' E 136°45'0 0.0
2018-Feb-19 14:30N 34°58' E 136°45'0 0.0
2018-Feb-19 14:00N 34°58' E 136°45'0 0.0
2018-Feb-19 13:30N 34°58' E 136°45'0 0.0
2018-Feb-19 13:00N 34°58' E 136°45'0 0.0
2018-Feb-19 12:30N 34°58' E 136°45'0 0.1
2018-Feb-19 12:00N 34°58' E 136°46'0 0.0
2018-Feb-19 11:29N 34°58' E 136°46'0 0.0
2018-Feb-19 10:59N 34°58' E 136°46'0 0.0
2018-Feb-19 10:29N 34°58' E 136°46'0 0.0
2018-Feb-19 09:59N 34°58' E 136°46'0 0.0
2018-Feb-19 09:29N 34°58' E 136°46'0 0.0
2018-Feb-19 08:59N 34°58' E 136°46'0 0.0
2018-Feb-19 08:20N 34°58' E 136°46'0 0.1
2018-Feb-19 07:59N 34°58' E 136°46'0 0.1
2018-Feb-19 07:29N 34°58' E 136°45'0 0.0
2018-Feb-19 06:59N 34°58' E 136°45'0 0.0
2018-Feb-19 06:29N 34°58' E 136°45'0 0.0
2018-Feb-19 05:59N 34°58' E 136°45'0 0.1
2018-Feb-19 05:29N 34°58' E 136°45'0 0.0
2018-Feb-19 04:59N 34°58' E 136°45'0 0.0
2018-Feb-19 04:29N 34°58' E 136°45'0 0.0
2018-Feb-19 03:59N 34°58' E 136°45'0 0.0
2018-Feb-19 03:29N 34°58' E 136°45'0 0.0
2018-Feb-19 02:59N 34°58' E 136°45'0 0.0
2018-Feb-19 02:29N 34°58' E 136°45'0 0.1
2018-Feb-19 01:59N 34°58' E 136°45'0 0.0
2018-Feb-19 01:29N 34°58' E 136°45'0 0.0
2018-Feb-19 00:59N 34°58' E 136°45'0 0.0
2018-Feb-19 00:29N 34°58' E 136°45'0 0.0
2018-Feb-18 23:59N 34°58' E 136°45'0 0.0
2018-Feb-18 23:29N 34°58' E 136°45'0 0.1
2018-Feb-18 22:59N 34°58' E 136°46'0 0.1
2018-Feb-18 22:29N 34°58' E 136°45'0 0.0
2018-Feb-18 21:59N 34°58' E 136°45'0 0.0
2018-Feb-18 21:29N 34°58' E 136°45'0 0.1
2018-Feb-18 20:59N 34°58' E 136°46'0 0.0
2018-Feb-18 20:29N 34°58' E 136°46'0 0.0
2018-Feb-18 19:56N 34°58' E 136°46'0 0.0
2018-Feb-18 19:29N 34°58' E 136°46'0 0.1
2018-Feb-18 18:59N 34°58' E 136°45'0 0.0
2018-Feb-18 18:29N 34°58' E 136°45'0 0.0
2018-Feb-18 17:59N 34°58' E 136°45'0 0.0
2018-Feb-18 17:29N 34°58' E 136°45'0 0.0
2018-Feb-18 16:59N 34°58' E 136°45'0 0.0
2018-Feb-18 16:29N 34°58' E 136°45'0 0.1
2018-Feb-18 15:59N 34°58' E 136°46'0 0.0
2018-Feb-18 15:29N 34°58' E 136°46'0 0.0
2018-Feb-18 14:59N 34°58' E 136°46'0 0.1
2018-Feb-18 14:29N 34°58' E 136°45'0 0.1
2018-Feb-18 13:59N 34°58' E 136°46'0 0.0
2018-Feb-18 13:29N 34°58' E 136°46'0 0.0
2018-Feb-18 12:59N 34°58' E 136°46'0 0.0
2018-Feb-18 12:29N 34°58' E 136°46'0 0.0
2018-Feb-18 11:59N 34°58' E 136°46'0 0.0
2018-Feb-18 11:29N 34°58' E 136°46'0 0.0
2018-Feb-18 10:59N 34°58' E 136°46'0 0.0
2018-Feb-18 10:29N 34°58' E 136°46'0 0.0
2018-Feb-18 09:59N 34°58' E 136°46'0 0.0
2018-Feb-18 09:29N 34°58' E 136°46'0 0.0
2018-Feb-18 08:59N 34°58' E 136°46'0 0.0
2018-Feb-18 08:29N 34°58' E 136°46'0 0.0
2018-Feb-18 07:59N 34°58' E 136°46'0 0.0
2018-Feb-18 07:29N 34°58' E 136°46'0 0.0
2018-Feb-18 06:59N 34°58' E 136°46'0 0.0
2018-Feb-18 06:29N 34°58' E 136°46'0 0.0
2018-Feb-18 05:59N 34°58' E 136°46'0 0.0
2018-Feb-18 05:29N 34°58' E 136°46'0 0.1
2018-Feb-18 04:59N 34°58' E 136°45'0 0.1
2018-Feb-18 04:29N 34°58' E 136°46'0 0.1
2018-Feb-18 03:59N 34°58' E 136°45'0 0.1
2018-Feb-18 03:29N 34°58' E 136°46'0 0.0
2018-Feb-18 02:59N 34°58' E 136°46'0 0.0
2018-Feb-18 02:29N 34°58' E 136°46'0 0.0
2018-Feb-18 01:59N 34°58' E 136°46'0 0.1
2018-Feb-18 01:29N 34°58' E 136°45'0 0.0
2018-Feb-18 00:59N 34°58' E 136°45'0 0.0
2018-Feb-18 00:29N 34°58' E 136°45'0 0.0
2018-Feb-17 23:58N 34°58' E 136°45'0 0.0
2018-Feb-17 23:28N 34°58' E 136°45'0 0.0
2018-Feb-17 22:58N 34°58' E 136°45'0 0.0
2018-Feb-17 22:28N 34°58' E 136°45'0 0.0
2018-Feb-17 21:58N 34°58' E 136°45'0 0.0
2018-Feb-17 21:28N 34°58' E 136°45'0 0.0
2018-Feb-17 20:58N 34°58' E 136°45'0 0.0
2018-Feb-17 20:28N 34°58' E 136°45'0 0.0
2018-Feb-17 19:58N 34°58' E 136°45'0 0.0
2018-Feb-17 19:28N 34°58' E 136°45'0 0.1
2018-Feb-17 18:58N 34°58' E 136°46'0 0.0
2018-Feb-17 18:28N 34°58' E 136°46'0 0.0
2018-Feb-17 17:58N 34°58' E 136°46'0 0.1
2018-Feb-17 17:28N 34°58' E 136°45'0 0.0
2018-Feb-17 16:58N 34°58' E 136°45'0 0.0
2018-Feb-17 16:28N 34°58' E 136°45'0 0.0
2018-Feb-17 15:58N 34°58' E 136°45'0 0.0
2018-Feb-17 15:28N 34°58' E 136°45'0 0.0
2018-Feb-17 14:58N 34°58' E 136°45'0 0.1
2018-Feb-17 14:28N 34°58' E 136°46'0 0.0
2018-Feb-17 13:58N 34°58' E 136°46'0 0.1
2018-Feb-17 13:28N 34°58' E 136°45'0 0.1
2018-Feb-17 12:58N 34°58' E 136°46'0 0.0
2018-Feb-17 12:28N 34°58' E 136°46'0 0.0
2018-Feb-17 11:58N 34°58' E 136°46'0 0.0
2018-Feb-17 11:28N 34°58' E 136°46'0 0.0
2018-Feb-17 10:58N 34°58' E 136°46'0 0.0
2018-Feb-17 10:28N 34°58' E 136°46'0 0.0
2018-Feb-17 09:58N 34°58' E 136°46'0 0.0
2018-Feb-17 09:25N 34°58' E 136°46'0 0.0
2018-Feb-17 08:58N 34°58' E 136°46'0 0.0
2018-Feb-17 08:28N 34°58' E 136°46'0 0.0
2018-Feb-17 07:58N 34°58' E 136°46'0 0.0
2018-Feb-17 07:28N 34°58' E 136°46'0 0.0
2018-Feb-17 06:58N 34°58' E 136°46'0 0.0
2018-Feb-17 06:28N 34°58' E 136°46'0 0.0
2018-Feb-17 05:58N 34°58' E 136°46'2 4.4
2018-Feb-17 05:30N 34°56' E 136°46'5 9.1
2018-Feb-17 05:00N 34°52' E 136°46'5 9.4
2018-Feb-17 04:30N 34°47' E 136°47'5 9.2
2018-Feb-17 04:00N 34°43' E 136°49'4 8.4
2018-Feb-17 03:30N 34°39' E 136°52'13 8.0
2018-Feb-17 01:57N 34°33' E 137°05'4 8.8
2018-Feb-17 01:27N 34°32' E 137°10'53 9.4
2018-Feb-16 19:51N 34°32' E 138°15'4 7.8
2018-Feb-16 19:22N 34°32' E 138°19'3 8.2
2018-Feb-16 18:58N 34°33' E 138°23'6 9.4
2018-Feb-16 18:23N 34°33' E 138°30'4 9.4
2018-Feb-16 18:00N 34°33' E 138°34'5 9.0
2018-Feb-16 17:26N 34°34' E 138°40'7 8.8
2018-Feb-16 16:42N 34°34' E 138°48'2 8.4
2018-Feb-16 16:30N 34°34' E 138°50'4 8.4
2018-Feb-16 16:00N 34°35' E 138°55'6 9.0
2018-Feb-16 15:21N 34°38' E 139°02'3 8.5
2018-Feb-16 15:00N 34°40' E 139°04'6 9.2
2018-Feb-16 14:19N 34°44' E 139°10'3 8.5
2018-Feb-16 14:00N 34°46' E 139°12'4 8.6
2018-Feb-16 13:30N 34°49' E 139°16'6 8.5
2018-Feb-16 12:51N 34°52' E 139°21'9 8.5
2018-Feb-16 11:46N 34°59' E 139°30'5 8.7
2018-Feb-16 11:13N 35°02' E 139°34'2 9.9
2018-Feb-16 11:00N 35°03' E 139°36'510.7
2018-Feb-16 10:30N 35°07' E 139°41'610.9
2018-Feb-16 10:00N 35°11' E 139°45'510.3
2018-Feb-16 09:30N 35°16' E 139°45'510.7
2018-Feb-16 09:00N 35°21' E 139°42'510.3
2018-Feb-16 08:30N 35°26' E 139°42'4 6.9
2018-Feb-16 07:59N 35°28' E 139°39'0 0.1
2018-Feb-16 07:29N 35°28' E 139°39'0 0.0
2018-Feb-16 06:59N 35°28' E 139°39'0 0.0
2018-Feb-16 06:29N 35°28' E 139°39'0 0.0
2018-Feb-16 05:59N 35°28' E 139°39'0 0.0
2018-Feb-16 05:29N 35°28' E 139°39'0 0.0
2018-Feb-16 04:53N 35°28' E 139°39'0 0.0
2018-Feb-16 04:29N 35°28' E 139°39'0 0.0
2018-Feb-16 03:59N 35°28' E 139°39'0 0.0
2018-Feb-16 03:29N 35°28' E 139°39'0 0.0
2018-Feb-16 02:59N 35°28' E 139°39'0 0.0
2018-Feb-16 02:29N 35°28' E 139°39'0 0.0
2018-Feb-16 01:59N 35°28' E 139°39'0 0.0
2018-Feb-16 01:26N 35°28' E 139°39'0 0.0
2018-Feb-16 00:59N 35°28' E 139°39'0 0.0
2018-Feb-16 00:29N 35°28' E 139°39'0 0.0
2018-Feb-15 23:59N 35°28' E 139°39'0 0.0
2018-Feb-15 23:29N 35°28' E 139°39'0 0.0
2018-Feb-15 22:59N 35°28' E 139°39'0 0.0
2018-Feb-15 22:29N 35°28' E 139°39'0 0.5
2018-Feb-15 22:00N 35°28' E 139°39'3 6.7
2018-Feb-15 21:30N 35°27' E 139°43'0 0.2
2018-Feb-15 20:59N 35°27' E 139°43'0 0.0
2018-Feb-15 20:29N 35°27' E 139°43'0 0.0
2018-Feb-15 19:59N 35°27' E 139°43'0 0.0
2018-Feb-15 19:29N 35°27' E 139°43'0 0.0
2018-Feb-15 18:59N 35°27' E 139°43'0 0.0
2018-Feb-15 18:29N 35°27' E 139°43'0 0.0
2018-Feb-15 17:59N 35°27' E 139°43'0 0.0
2018-Feb-15 17:29N 35°27' E 139°43'0 0.0
2018-Feb-15 16:59N 35°27' E 139°43'0 0.1
2018-Feb-15 16:29N 35°27' E 139°43'0 0.1
2018-Feb-15 15:53N 35°27' E 139°43'0 0.0
2018-Feb-15 15:29N 35°27' E 139°43'0 0.0
2018-Feb-15 14:59N 35°27' E 139°43'0 0.1
2018-Feb-15 14:29N 35°27' E 139°43'0 0.0
2018-Feb-15 13:59N 35°27' E 139°43'0 0.0
2018-Feb-15 13:29N 35°27' E 139°43'0 0.0
2018-Feb-15 12:56N 35°27' E 139°43'0 0.1
2018-Feb-15 12:29N 35°27' E 139°43'0 0.1
2018-Feb-15 11:59N 35°27' E 139°43'0 0.0
2018-Feb-15 11:29N 35°27' E 139°43'0 0.0
2018-Feb-15 10:59N 35°27' E 139°43'0 0.1
2018-Feb-15 10:29N 35°27' E 139°43'0 0.0
2018-Feb-15 09:59N 35°27' E 139°43'0 0.1
2018-Feb-15 09:30N 35°27' E 139°43'1 2.2
2018-Feb-15 09:00N 35°27' E 139°44'510.8
2018-Feb-15 08:30N 35°29' E 139°50'510.9
2018-Feb-15 08:00N 35°33' E 139°55'5 9.7
2018-Feb-15 07:30N 35°36' E 139°59'1 0.1
2018-Feb-14 20:30N 35°38' E 139°59'2 0.6
2018-Feb-14 17:49N 35°36' E 139°58'0 0.0
2018-Feb-14 16:22N 35°36' E 139°58'0 0.0
2018-Feb-14 15:58N 35°36' E 139°58'0 0.0
2018-Feb-14 14:43N 35°36' E 139°58'0 0.0
2018-Feb-14 14:13N 35°36' E 139°58'0 0.0
2018-Feb-14 13:49N 35°36' E 139°58'0 0.0
2018-Feb-14 13:13N 35°36' E 139°58'0 0.0
2018-Feb-14 12:55N 35°36' E 139°58'0 0.0
2018-Feb-14 12:25N 35°36' E 139°58'0 0.0
2018-Feb-14 11:55N 35°36' E 139°58'0 0.0
2018-Feb-14 11:19N 35°36' E 139°58'0 0.0
2018-Feb-14 10:55N 35°36' E 139°58'0 0.0
2018-Feb-14 10:07N 35°36' E 139°58'0 0.0
2018-Feb-14 09:43N 35°36' E 139°58'0 0.0
2018-Feb-14 08:31N 35°36' E 139°58'0 0.0
2018-Feb-14 06:34N 35°36' E 139°58'0 0.0
2018-Feb-14 05:01N 35°36' E 139°58'0 0.0
2018-Feb-14 04:43N 35°36' E 139°58'0 0.0
2018-Feb-14 03:13N 35°36' E 139°58'0 0.0
2018-Feb-14 02:55N 35°36' E 139°58'0 0.1
2018-Feb-14 01:37N 35°36' E 139°58'0 0.0
2018-Feb-14 01:25N 35°36' E 139°58'0 0.0
2018-Feb-14 00:55N 35°36' E 139°58'0 0.0
2018-Feb-14 00:25N 35°36' E 139°58'0 0.0
2018-Feb-13 23:49N 35°36' E 139°58'0 0.1
2018-Feb-13 22:55N 35°36' E 139°58'0 0.0
2018-Feb-13 22:19N 35°36' E 139°58'0 0.1
2018-Feb-13 21:49N 35°36' E 139°58'1 2.0
2018-Feb-13 21:30N 35°35' E 139°58'5 9.8
2018-Feb-13 20:59N 35°31' E 139°54'510.1
2018-Feb-13 20:30N 35°28' E 139°50'510.1
2018-Feb-13 20:00N 35°24' E 139°46'510.2
2018-Feb-13 19:31N 35°19' E 139°44'510.4
2018-Feb-13 19:00N 35°14' E 139°47'510.5
2018-Feb-13 18:30N 35°09' E 139°45'5 9.8
2018-Feb-13 18:00N 35°05' E 139°43'510.2
2018-Feb-13 17:31N 35°01' E 139°38'1911.8
2018-Feb-13 15:55N 34°50' E 139°20'512.0
2018-Feb-13 15:30N 34°46' E 139°16'812.6
2018-Feb-13 14:53N 34°41' E 139°09'411.8
2018-Feb-13 14:30N 34°39' E 139°04'610.8
2018-Feb-13 13:55N 34°36' E 138°57'511.6
2018-Feb-13 13:27N 34°34' E 138°51'811.4
2018-Feb-13 12:46N 34°33' E 138°42'411.2
2018-Feb-13 12:27N 34°33' E 138°37'510.7
2018-Feb-13 11:59N 34°33' E 138°31'5 9.9
2018-Feb-13 11:29N 34°32' E 138°25'510.0
2018-Feb-13 11:00N 34°32' E 138°20'168 9.3
2018-Feb-12 16:56N 33°49' E 135°03'510.9
2018-Feb-12 16:30N 33°53' E 134°60'510.5
2018-Feb-12 16:00N 33°57' E 134°56'810.6
2018-Feb-12 15:18N 34°03' E 134°50'310.8
2018-Feb-12 15:00N 34°05' E 134°47'811.4
2018-Feb-12 14:18N 34°11' E 134°41'412.8
2018-Feb-12 14:00N 34°15' E 134°39'611.2
2018-Feb-12 13:30N 34°17' E 134°33'610.8
2018-Feb-12 12:59N 34°19' E 134°27'610.7
2018-Feb-12 12:27N 34°22' E 134°20'710.9
2018-Feb-12 11:48N 34°24' E 134°12'  

Dump ship's entire track history